createdAt,value
2018-06-23T00:03:33.257Z,9.30
2018-06-23T00:08:36.436Z,9.67
2018-06-23T00:13:39.665Z,8.93
2018-06-23T00:18:42.871Z,9.83
2018-06-23T00:23:46.079Z,8.50
2018-06-23T00:28:49.304Z,10.77
2018-06-23T00:33:52.515Z,13.17
2018-06-23T00:38:55.710Z,15.03
2018-06-23T00:43:58.924Z,11.30
2018-06-23T00:49:02.123Z,10.33
2018-06-23T00:54:05.331Z,13.23
2018-06-23T00:59:19.884Z,9.33
2018-06-23T01:04:23.098Z,7.80
2018-06-23T01:09:26.507Z,6.67
2018-06-23T01:14:29.813Z,17.30
2018-06-23T01:19:32.999Z,14.07
2018-06-23T01:24:36.256Z,13.87
2018-06-23T01:29:39.451Z,11.70
2018-06-23T01:34:42.642Z,14.10
2018-06-23T01:39:45.827Z,9.63
2018-06-23T01:44:49.015Z,12.90
2018-06-23T01:49:52.216Z,14.70
2018-06-23T01:54:55.404Z,12.00
2018-06-23T01:59:58.583Z,8.33
2018-06-23T02:05:01.819Z,11.93
2018-06-23T02:10:05.005Z,21.80
2018-06-23T02:15:09.487Z,11.23
2018-06-23T02:20:18.148Z,9.97
2018-06-23T02:25:26.873Z,9.30
2018-06-23T02:30:35.600Z,11.87
2018-06-23T02:35:38.783Z,16.53
2018-06-23T02:40:41.975Z,12.37
2018-06-23T02:45:45.157Z,7.73
2018-06-23T02:50:48.408Z,15.00
2018-06-23T02:55:51.609Z,8.50
2018-06-23T03:00:54.803Z,12.17
2018-06-23T03:05:58.000Z,10.43
2018-06-23T03:11:01.236Z,12.83
2018-06-23T03:16:04.411Z,10.50
2018-06-23T03:21:07.601Z,11.27
2018-06-23T03:26:10.796Z,14.90
2018-06-23T03:31:13.983Z,14.93
2018-06-23T03:36:17.175Z,13.77
2018-06-23T03:41:20.375Z,13.80
2018-06-23T03:46:23.575Z,16.57
2018-06-23T03:51:26.860Z,10.23
2018-06-23T03:56:30.051Z,18.70
2018-06-23T04:01:33.236Z,11.50
2018-06-23T04:06:36.436Z,17.30
2018-06-23T04:11:39.703Z,21.50
2018-06-23T04:16:42.909Z,11.90
2018-06-23T04:21:46.101Z,11.20
2018-06-23T04:26:49.287Z,14.13
2018-06-23T04:31:52.499Z,16.20
2018-06-23T04:36:55.686Z,9.50
2018-06-23T04:41:58.908Z,7.33
2018-06-23T04:47:02.116Z,13.13
2018-06-23T04:52:05.303Z,12.20
2018-06-23T04:57:08.504Z,10.67
2018-06-23T05:02:11.692Z,16.83
2018-06-23T05:07:14.879Z,11.27
2018-06-23T05:12:18.132Z,11.33
2018-06-23T05:17:22.125Z,13.00
2018-06-23T05:22:25.319Z,17.17
2018-06-23T05:27:28.515Z,13.00
2018-06-23T05:32:31.711Z,11.93
2018-06-23T05:37:34.900Z,19.17
2018-06-23T05:42:38.102Z,17.27
2018-06-23T05:47:41.311Z,12.70
2018-06-23T05:52:44.508Z,13.80
2018-06-23T05:57:47.710Z,11.30
2018-06-23T06:02:50.893Z,8.97
2018-06-23T06:07:54.099Z,11.10
2018-06-23T06:12:57.361Z,14.63
2018-06-23T06:18:00.533Z,6.60
2018-06-23T06:23:03.716Z,10.67
2018-06-23T06:28:06.901Z,14.60
2018-06-23T06:33:10.085Z,13.60
2018-06-23T06:38:13.255Z,12.80
2018-06-23T06:43:16.447Z,11.97
2018-06-23T06:48:19.615Z,15.07
2018-06-23T06:53:22.819Z,10.00
2018-06-23T06:58:26.007Z,10.40
2018-06-23T07:03:29.211Z,10.90
2018-06-23T07:08:32.392Z,13.47
2018-06-23T07:13:35.607Z,14.53
2018-06-23T07:18:38.802Z,25.20
2018-06-23T07:23:42.065Z,23.53
2018-06-23T07:28:45.180Z,13.90
2018-06-23T07:33:48.864Z,11.13
2018-06-23T07:38:52.088Z,22.70
2018-06-23T07:43:55.264Z,8.87
2018-06-23T07:48:58.463Z,15.57
2018-06-23T07:54:01.650Z,15.07
2018-06-23T07:59:04.823Z,11.90
2018-06-23T08:04:08.016Z,17.23
2018-06-23T08:09:11.191Z,13.53
2018-06-23T08:14:14.419Z,12.50
2018-06-23T08:19:17.619Z,13.30
2018-06-23T08:24:20.811Z,22.27
2018-06-23T08:29:24.032Z,10.97
2018-06-23T08:34:27.233Z,10.30
2018-06-23T08:39:30.432Z,14.80
2018-06-23T08:44:33.619Z,16.47
2018-06-23T08:49:36.875Z,15.50
2018-06-23T08:54:40.080Z,18.60
2018-06-23T08:59:43.296Z,8.77
2018-06-23T09:04:46.496Z,9.27
2018-06-23T09:09:49.764Z,9.03
2018-06-23T09:14:52.975Z,10.47
2018-06-23T09:19:56.176Z,15.10
2018-06-23T09:24:59.362Z,14.77
2018-06-23T09:30:02.568Z,13.50
2018-06-23T09:35:05.778Z,8.30
2018-06-23T09:40:08.976Z,10.50
2018-06-23T09:45:12.180Z,12.73
2018-06-23T09:50:15.367Z,12.00
2018-06-23T09:55:18.589Z,13.33
2018-06-23T10:00:27.175Z,9.60
2018-06-23T10:05:30.480Z,11.33
2018-06-23T10:10:33.777Z,9.03
2018-06-23T10:15:36.979Z,9.80
2018-06-23T10:20:40.167Z,11.90
2018-06-23T10:25:43.368Z,9.70
2018-06-23T10:30:46.629Z,14.63
2018-06-23T10:35:49.875Z,7.00
2018-06-23T10:40:53.075Z,11.57
2018-06-23T10:45:56.260Z,18.53
2018-06-23T10:50:59.468Z,13.13
2018-06-23T10:56:02.657Z,8.37
2018-06-23T11:01:05.994Z,13.93
2018-06-23T11:06:09.190Z,7.90
2018-06-23T11:11:12.409Z,11.70
2018-06-23T11:16:15.628Z,10.10
2018-06-23T11:21:18.812Z,3.80
2018-06-23T11:26:21.963Z,11.43
2018-06-23T11:31:25.156Z,4.37
2018-06-23T11:36:28.432Z,14.53
2018-06-23T11:41:31.623Z,15.97
2018-06-23T11:46:34.819Z,8.53
2018-06-23T11:51:37.986Z,6.73
2018-06-23T11:56:41.186Z,10.50
2018-06-23T12:01:44.426Z,13.03
2018-06-23T12:06:47.574Z,10.10
2018-06-23T12:11:51.340Z,7.93
2018-06-23T12:16:54.541Z,11.60
2018-06-23T12:21:57.883Z,6.93
2018-06-23T12:27:01.090Z,7.67
2018-06-23T12:32:04.284Z,18.00
2018-06-23T12:37:07.484Z,7.57
2018-06-23T12:42:10.692Z,9.90
2018-06-23T12:47:13.888Z,8.40
2018-06-23T12:52:17.071Z,8.87
2018-06-23T12:57:20.267Z,9.27
2018-06-23T13:02:23.608Z,7.93
2018-06-23T13:07:26.800Z,6.27
2018-06-23T13:12:30.020Z,7.50
2018-06-23T13:17:33.195Z,8.00
2018-06-23T13:22:36.397Z,3.47
2018-06-23T13:27:40.233Z,4.33
2018-06-23T13:32:43.430Z,3.63
2018-06-23T13:37:46.628Z,6.53
2018-06-23T13:42:49.824Z,2.00
2018-06-23T13:47:53.060Z,4.50
2018-06-23T13:52:56.244Z,13.10
2018-06-23T13:57:59.438Z,3.87
2018-06-23T14:03:02.667Z,10.80
2018-06-23T14:08:05.850Z,4.80
2018-06-23T14:13:09.052Z,4.90
2018-06-23T14:18:12.228Z,6.50
2018-06-23T14:23:15.415Z,7.87
2018-06-23T14:28:18.604Z,3.20
2018-06-23T14:33:21.796Z,7.07
2018-06-23T14:38:24.984Z,12.23
2018-06-23T14:43:28.187Z,10.13
2018-06-23T14:48:31.376Z,3.80
2018-06-23T14:53:35.411Z,4.43
2018-06-23T14:58:38.583Z,4.23
2018-06-23T15:03:41.759Z,6.23
2018-06-23T15:08:56.418Z,4.60
2018-06-23T15:13:59.620Z,5.93
2018-06-23T15:19:02.808Z,11.53
2018-06-23T15:24:06.076Z,5.50
2018-06-23T15:29:09.276Z,3.57
2018-06-23T15:34:12.479Z,2.13
2018-06-23T15:39:15.676Z,4.20
2018-06-23T15:44:18.859Z,3.93
2018-06-23T15:49:22.052Z,3.93
2018-06-23T15:54:25.248Z,5.53
2018-06-23T15:59:28.419Z,3.47
2018-06-23T16:04:31.608Z,9.33
2018-06-23T16:09:34.804Z,8.40
2018-06-23T16:14:38.027Z,3.77
2018-06-23T16:19:41.256Z,4.37
2018-06-23T16:24:44.455Z,5.47
2018-06-23T16:29:47.639Z,2.90
2018-06-23T16:34:50.920Z,5.00
2018-06-23T16:39:54.011Z,9.43
2018-06-23T16:44:57.332Z,7.60
2018-06-23T16:50:00.507Z,7.47
2018-06-23T16:55:03.702Z,3.10
2018-06-23T17:00:06.872Z,4.90
2018-06-23T17:05:10.048Z,5.17
2018-06-23T17:10:13.228Z,2.40
2018-06-23T17:15:16.515Z,8.20
2018-06-23T17:20:19.707Z,5.70
2018-06-23T17:25:22.983Z,5.67
2018-06-23T17:30:26.187Z,3.87
2018-06-23T17:35:29.368Z,12.60
2018-06-23T17:40:32.569Z,7.97
2018-06-23T17:45:35.789Z,6.13
2018-06-23T17:50:38.979Z,3.30
2018-06-23T17:55:42.168Z,4.30
2018-06-23T18:00:45.388Z,5.00
2018-06-23T18:05:48.615Z,8.30
2018-06-23T18:10:51.855Z,6.50
2018-06-23T18:15:55.060Z,1.70
2018-06-23T18:20:58.343Z,9.13
2018-06-23T18:26:01.605Z,3.60
2018-06-23T18:31:09.381Z,8.57
2018-06-23T18:36:12.808Z,7.73
2018-06-23T18:41:16.057Z,6.33
2018-06-23T18:46:19.295Z,6.57
2018-06-23T18:51:22.508Z,3.60
2018-06-23T18:56:25.820Z,4.00
2018-06-23T19:01:29.044Z,3.50
2018-06-23T19:06:32.324Z,8.17
2018-06-23T19:11:35.634Z,4.37
2018-06-23T19:16:38.988Z,7.73
2018-06-23T19:21:42.285Z,6.40
2018-06-23T19:26:45.600Z,5.30
2018-06-23T19:31:48.969Z,6.50
2018-06-23T19:36:52.340Z,6.70
2018-06-23T19:41:55.727Z,5.60
2018-06-23T19:46:59.067Z,3.13
2018-06-23T19:52:02.308Z,2.43
2018-06-23T19:57:05.660Z,2.97
2018-06-23T20:02:08.848Z,3.93
2018-06-23T20:08:14.713Z,4.10
2018-06-23T20:13:17.916Z,3.23
2018-06-23T20:18:21.125Z,3.20
2018-06-23T20:23:24.328Z,2.00
2018-06-23T20:28:27.512Z,4.07
2018-06-23T20:33:30.769Z,2.70
2018-06-23T20:38:33.960Z,2.80
2018-06-23T20:43:37.147Z,4.23
2018-06-23T20:48:40.336Z,3.00
2018-06-23T20:53:43.516Z,5.00
2018-06-23T20:58:46.700Z,2.30
2018-06-23T21:03:49.987Z,3.37
2018-06-23T21:08:53.164Z,1.87
2018-06-23T21:13:56.444Z,6.30
2018-06-23T21:18:59.639Z,3.67
2018-06-23T21:24:02.823Z,1.57
2018-06-23T21:29:06.039Z,1.97
2018-06-23T21:34:09.221Z,4.30
2018-06-23T21:39:12.436Z,1.63
2018-06-23T21:44:15.616Z,3.90
2018-06-23T21:49:18.835Z,3.37
2018-06-23T21:54:22.024Z,4.80
2018-06-23T21:59:25.218Z,1.70
2018-06-23T22:04:28.500Z,2.67
2018-06-23T22:09:31.696Z,3.27
2018-06-23T22:14:34.977Z,2.30
2018-06-23T22:19:38.204Z,4.17
2018-06-23T22:24:41.407Z,3.03
2018-06-23T22:29:44.646Z,1.50
2018-06-23T22:34:47.839Z,2.73
2018-06-23T22:39:51.038Z,1.90
2018-06-23T22:44:54.211Z,2.27
2018-06-23T22:49:57.420Z,1.93
2018-06-23T22:55:00.596Z,2.40
2018-06-23T23:00:08.365Z,2.13
2018-06-23T23:05:11.555Z,2.17
2018-06-23T23:10:14.723Z,3.73
2018-06-23T23:15:17.931Z,1.40
2018-06-23T23:20:21.138Z,2.07
2018-06-23T23:25:24.328Z,2.83
2018-06-23T23:30:27.529Z,1.97
2018-06-23T23:35:30.715Z,5.47
2018-06-23T23:40:33.908Z,3.37
2018-06-23T23:45:37.116Z,2.90
2018-06-23T23:50:40.416Z,4.23
2018-06-23T23:55:43.651Z,5.30
